sensor_id;sensor_type;location;lat;lon;timestamp;P1;durP1;ratioP1;P2;durP2;ratioP2
37309;SDS011;23195;47.744;7.358;2023-12-22T00:00:40;5.93;;;1.53;;
37309;SDS011;23195;47.744;7.358;2023-12-22T00:03:06;8.47;;;1.77;;
37309;SDS011;23195;47.744;7.358;2023-12-22T00:05:32;9.97;;;1.83;;
37309;SDS011;23195;47.744;7.358;2023-12-22T00:08:00;8.30;;;1.73;;
37309;SDS011;23195;47.744;7.358;2023-12-22T00:10:25;8.70;;;1.80;;
37309;SDS011;23195;47.744;7.358;2023-12-22T00:12:51;4.50;;;1.60;;
37309;SDS011;23195;47.744;7.358;2023-12-22T00:15:17;6.47;;;2.00;;
37309;SDS011;23195;47.744;7.358;2023-12-22T00:17:43;6.70;;;1.80;;
37309;SDS011;23195;47.744;7.358;2023-12-22T00:20:09;5.30;;;1.83;;
37309;SDS011;23195;47.744;7.358;2023-12-22T00:22:38;8.23;;;1.80;;
37309;SDS011;23195;47.744;7.358;2023-12-22T00:25:04;10.00;;;2.30;;
37309;SDS011;23195;47.744;7.358;2023-12-22T00:27:30;6.13;;;1.90;;
37309;SDS011;23195;47.744;7.358;2023-12-22T00:29:55;7.53;;;1.70;;
37309;SDS011;23195;47.744;7.358;2023-12-22T00:32:21;9.40;;;1.80;;
37309;SDS011;23195;47.744;7.358;2023-12-22T00:34:47;12.77;;;2.27;;
37309;SDS011;23195;47.744;7.358;2023-12-22T00:37:13;7.70;;;1.77;;
37309;SDS011;23195;47.744;7.358;2023-12-22T00:39:38;4.70;;;0.97;;
37309;SDS011;23195;47.744;7.358;2023-12-22T00:42:04;8.03;;;1.20;;
37309;SDS011;23195;47.744;7.358;2023-12-22T00:44:30;6.37;;;1.17;;
37309;SDS011;23195;47.744;7.358;2023-12-22T00:46:56;3.63;;;1.10;;
37309;SDS011;23195;47.744;7.358;2023-12-22T00:49:21;5.03;;;0.97;;
37309;SDS011;23195;47.744;7.358;2023-12-22T00:51:47;5.10;;;0.60;;
37309;SDS011;23195;47.744;7.358;2023-12-22T00:54:13;4.67;;;0.80;;
37309;SDS011;23195;47.744;7.358;2023-12-22T00:56:39;3.33;;;0.80;;
37309;SDS011;23195;47.744;7.358;2023-12-22T00:59:04;6.53;;;1.47;;
37309;SDS011;23195;47.744;7.358;2023-12-22T01:01:37;6.07;;;1.80;;
37309;SDS011;23195;47.744;7.358;2023-12-22T01:04:03;7.17;;;1.97;;
37309;SDS011;23195;47.744;7.358;2023-12-22T01:06:29;6.30;;;1.83;;
37309;SDS011;23195;47.744;7.358;2023-12-22T01:08:55;7.63;;;2.40;;
37309;SDS011;23195;47.744;7.358;2023-12-22T01:11:20;7.10;;;1.70;;
37309;SDS011;23195;47.744;7.358;2023-12-22T01:13:49;7.67;;;2.30;;
37309;SDS011;23195;47.744;7.358;2023-12-22T01:16:15;11.43;;;2.37;;
37309;SDS011;23195;47.744;7.358;2023-12-22T01:18:40;9.80;;;2.00;;
37309;SDS011;23195;47.744;7.358;2023-12-22T01:21:08;9.13;;;2.07;;
37309;SDS011;23195;47.744;7.358;2023-12-22T01:23:34;7.80;;;1.90;;
37309;SDS011;23195;47.744;7.358;2023-12-22T01:26:00;7.47;;;2.10;;
37309;SDS011;23195;47.744;7.358;2023-12-22T01:28:25;6.87;;;1.90;;
37309;SDS011;23195;47.744;7.358;2023-12-22T01:30:51;10.13;;;1.90;;
37309;SDS011;23195;47.744;7.358;2023-12-22T01:33:17;6.50;;;1.97;;
37309;SDS011;23195;47.744;7.358;2023-12-22T01:35:43;5.47;;;1.77;;
37309;SDS011;23195;47.744;7.358;2023-12-22T01:38:09;4.97;;;1.40;;
37309;SDS011;23195;47.744;7.358;2023-12-22T01:40:35;6.70;;;1.93;;
37309;SDS011;23195;47.744;7.358;2023-12-22T01:43:01;7.60;;;1.93;;
37309;SDS011;23195;47.744;7.358;2023-12-22T01:45:27;6.97;;;2.00;;
37309;SDS011;23195;47.744;7.358;2023-12-22T01:47:59;9.10;;;1.97;;
37309;SDS011;23195;47.744;7.358;2023-12-22T01:50:26;7.17;;;1.67;;
37309;SDS011;23195;47.744;7.358;2023-12-22T01:52:55;5.60;;;1.60;;
37309;SDS011;23195;47.744;7.358;2023-12-22T01:55:21;6.63;;;1.73;;
37309;SDS011;23195;47.744;7.358;2023-12-22T01:57:47;5.43;;;1.63;;
37309;SDS011;23195;47.744;7.358;2023-12-22T02:00:14;12.23;;;2.17;;
37309;SDS011;23195;47.744;7.358;2023-12-22T02:02:40;7.27;;;1.97;;
37309;SDS011;23195;47.744;7.358;2023-12-22T02:05:09;7.40;;;1.73;;
37309;SDS011;23195;47.744;7.358;2023-12-22T02:07:37;8.93;;;2.03;;
37309;SDS011;23195;47.744;7.358;2023-12-22T02:10:07;7.30;;;1.70;;
37309;SDS011;23195;47.744;7.358;2023-12-22T02:12:34;4.90;;;1.53;;
37309;SDS011;23195;47.744;7.358;2023-12-22T02:15:03;7.77;;;1.63;;
37309;SDS011;23195;47.744;7.358;2023-12-22T02:20:02;3.37;;;1.20;;
37309;SDS011;23195;47.744;7.358;2023-12-22T02:22:29;7.00;;;1.33;;
37309;SDS011;23195;47.744;7.358;2023-12-22T02:24:54;5.03;;;1.10;;
37309;SDS011;23195;47.744;7.358;2023-12-22T02:33:05;5.87;;;1.40;;
37309;SDS011;23195;47.744;7.358;2023-12-22T02:35:33;6.93;;;1.50;;
37309;SDS011;23195;47.744;7.358;2023-12-22T02:38:01;5.90;;;1.33;;
37309;SDS011;23195;47.744;7.358;2023-12-22T02:40:30;9.23;;;1.20;;
37309;SDS011;23195;47.744;7.358;2023-12-22T02:42:58;4.10;;;1.37;;
37309;SDS011;23195;47.744;7.358;2023-12-22T02:45:24;8.07;;;1.60;;
37309;SDS011;23195;47.744;7.358;2023-12-22T02:47:50;6.87;;;1.23;;
37309;SDS011;23195;47.744;7.358;2023-12-22T02:50:16;5.27;;;1.70;;
37309;SDS011;23195;47.744;7.358;2023-12-22T02:52:42;8.10;;;1.50;;
37309;SDS011;23195;47.744;7.358;2023-12-22T02:55:10;8.30;;;1.50;;
37309;SDS011;23195;47.744;7.358;2023-12-22T02:57:35;6.40;;;1.50;;
37309;SDS011;23195;47.744;7.358;2023-12-22T03:00:01;8.97;;;1.30;;
37309;SDS011;23195;47.744;7.358;2023-12-22T03:02:27;9.13;;;1.63;;
37309;SDS011;23195;47.744;7.358;2023-12-22T03:04:56;13.67;;;1.50;;
37309;SDS011;23195;47.744;7.358;2023-12-22T03:07:22;7.70;;;2.10;;
37309;SDS011;23195;47.744;7.358;2023-12-22T03:09:47;9.03;;;1.93;;
37309;SDS011;23195;47.744;7.358;2023-12-22T03:12:13;14.10;;;2.47;;
37309;SDS011;23195;47.744;7.358;2023-12-22T03:14:39;8.80;;;2.37;;
37309;SDS011;23195;47.744;7.358;2023-12-22T03:17:05;12.53;;;1.87;;
37309;SDS011;23195;47.744;7.358;2023-12-22T03:19:32;9.37;;;2.60;;
37309;SDS011;23195;47.744;7.358;2023-12-22T03:21:59;10.67;;;1.90;;
37309;SDS011;23195;47.744;7.358;2023-12-22T03:24:26;11.70;;;1.93;;
37309;SDS011;23195;47.744;7.358;2023-12-22T03:26:53;8.00;;;1.70;;
37309;SDS011;23195;47.744;7.358;2023-12-22T03:29:19;8.43;;;1.63;;
37309;SDS011;23195;47.744;7.358;2023-12-22T03:31:46;9.20;;;1.57;;
37309;SDS011;23195;47.744;7.358;2023-12-22T03:34:12;7.27;;;1.50;;
37309;SDS011;23195;47.744;7.358;2023-12-22T03:36:38;5.97;;;1.27;;
37309;SDS011;23195;47.744;7.358;2023-12-22T03:39:04;3.87;;;1.10;;
37309;SDS011;23195;47.744;7.358;2023-12-22T03:41:31;8.60;;;1.30;;
37309;SDS011;23195;47.744;7.358;2023-12-22T03:43:57;5.83;;;1.13;;
37309;SDS011;23195;47.744;7.358;2023-12-22T03:46:23;6.80;;;1.40;;
37309;SDS011;23195;47.744;7.358;2023-12-22T03:48:52;6.43;;;1.27;;
37309;SDS011;23195;47.744;7.358;2023-12-22T03:51:18;9.93;;;1.90;;
37309;SDS011;23195;47.744;7.358;2023-12-22T03:53:44;9.70;;;1.77;;
37309;SDS011;23195;47.744;7.358;2023-12-22T03:56:10;10.57;;;2.13;;
37309;SDS011;23195;47.744;7.358;2023-12-22T03:58:36;12.60;;;2.50;;
37309;SDS011;23195;47.744;7.358;2023-12-22T04:01:02;7.77;;;1.77;;
37309;SDS011;23195;47.744;7.358;2023-12-22T04:03:28;7.90;;;2.07;;
37309;SDS011;23195;47.744;7.358;2023-12-22T04:05:54;12.83;;;2.37;;
37309;SDS011;23195;47.744;7.358;2023-12-22T04:08:19;11.80;;;2.23;;
37309;SDS011;23195;47.744;7.358;2023-12-22T04:10:46;15.50;;;2.43;;
37309;SDS011;23195;47.744;7.358;2023-12-22T04:13:12;8.67;;;2.50;;
37309;SDS011;23195;47.744;7.358;2023-12-22T04:15:38;14.20;;;2.57;;
37309;SDS011;23195;47.744;7.358;2023-12-22T04:18:06;12.67;;;2.90;;
37309;SDS011;23195;47.744;7.358;2023-12-22T04:20:35;9.20;;;2.13;;
37309;SDS011;23195;47.744;7.358;2023-12-22T04:23:01;14.50;;;2.60;;
37309;SDS011;23195;47.744;7.358;2023-12-22T04:25:27;12.50;;;2.50;;
37309;SDS011;23195;47.744;7.358;2023-12-22T04:27:52;15.53;;;2.80;;
37309;SDS011;23195;47.744;7.358;2023-12-22T04:30:18;13.87;;;2.87;;
37309;SDS011;23195;47.744;7.358;2023-12-22T04:32:44;11.47;;;2.50;;
37309;SDS011;23195;47.744;7.358;2023-12-22T04:35:10;17.27;;;3.30;;
37309;SDS011;23195;47.744;7.358;2023-12-22T04:37:35;15.53;;;2.30;;
37309;SDS011;23195;47.744;7.358;2023-12-22T04:40:01;11.00;;;2.60;;
37309;SDS011;23195;47.744;7.358;2023-12-22T04:42:27;17.43;;;2.87;;
37309;SDS011;23195;47.744;7.358;2023-12-22T04:44:54;12.47;;;2.90;;
37309;SDS011;23195;47.744;7.358;2023-12-22T04:47:19;14.47;;;3.10;;
37309;SDS011;23195;47.744;7.358;2023-12-22T04:49:46;14.87;;;2.33;;
37309;SDS011;23195;47.744;7.358;2023-12-22T04:52:11;12.43;;;2.13;;
37309;SDS011;23195;47.744;7.358;2023-12-22T04:54:37;14.17;;;2.70;;
37309;SDS011;23195;47.744;7.358;2023-12-22T04:57:03;14.50;;;2.70;;
37309;SDS011;23195;47.744;7.358;2023-12-22T04:59:29;13.50;;;2.83;;
37309;SDS011;23195;47.744;7.358;2023-12-22T05:01:55;16.97;;;3.10;;
37309;SDS011;23195;47.744;7.358;2023-12-22T05:04:21;20.00;;;3.90;;
37309;SDS011;23195;47.744;7.358;2023-12-22T05:06:47;15.37;;;2.90;;
37309;SDS011;23195;47.744;7.358;2023-12-22T05:09:13;13.37;;;3.13;;
37309;SDS011;23195;47.744;7.358;2023-12-22T05:11:39;14.30;;;3.27;;
37309;SDS011;23195;47.744;7.358;2023-12-22T05:14:05;10.10;;;2.60;;
37309;SDS011;23195;47.744;7.358;2023-12-22T05:16:31;13.07;;;2.63;;
37309;SDS011;23195;47.744;7.358;2023-12-22T05:19:00;15.03;;;3.03;;
37309;SDS011;23195;47.744;7.358;2023-12-22T05:21:25;11.13;;;3.10;;
37309;SDS011;23195;47.744;7.358;2023-12-22T05:23:53;13.37;;;2.23;;
37309;SDS011;23195;47.744;7.358;2023-12-22T05:26:19;18.03;;;2.67;;
37309;SDS011;23195;47.744;7.358;2023-12-22T05:28:45;11.60;;;2.33;;
37309;SDS011;23195;47.744;7.358;2023-12-22T05:31:12;16.53;;;3.03;;
37309;SDS011;23195;47.744;7.358;2023-12-22T05:33:38;13.43;;;2.97;;
37309;SDS011;23195;47.744;7.358;2023-12-22T05:36:04;19.80;;;3.20;;
37309;SDS011;23195;47.744;7.358;2023-12-22T05:38:30;15.97;;;2.97;;
37309;SDS011;23195;47.744;7.358;2023-12-22T05:40:56;23.77;;;3.47;;
37309;SDS011;23195;47.744;7.358;2023-12-22T05:43:22;14.67;;;2.77;;
37309;SDS011;23195;47.744;7.358;2023-12-22T05:45:48;14.87;;;2.90;;
37309;SDS011;23195;47.744;7.358;2023-12-22T05:48:14;16.00;;;2.90;;
37309;SDS011;23195;47.744;7.358;2023-12-22T05:50:40;13.13;;;3.17;;
37309;SDS011;23195;47.744;7.358;2023-12-22T05:53:05;14.00;;;3.07;;
37309;SDS011;23195;47.744;7.358;2023-12-22T05:55:31;11.40;;;2.50;;
37309;SDS011;23195;47.744;7.358;2023-12-22T05:57:57;8.43;;;2.00;;
37309;SDS011;23195;47.744;7.358;2023-12-22T06:00:23;15.50;;;2.30;;
37309;SDS011;23195;47.744;7.358;2023-12-22T06:02:48;12.00;;;1.93;;
37309;SDS011;23195;47.744;7.358;2023-12-22T06:05:14;8.77;;;1.87;;
37309;SDS011;23195;47.744;7.358;2023-12-22T06:07:40;12.90;;;2.07;;
37309;SDS011;23195;47.744;7.358;2023-12-22T06:10:06;7.80;;;2.00;;
37309;SDS011;23195;47.744;7.358;2023-12-22T06:12:34;13.20;;;2.10;;
37309;SDS011;23195;47.744;7.358;2023-12-22T06:15:00;12.83;;;2.47;;
37309;SDS011;23195;47.744;7.358;2023-12-22T06:17:26;9.13;;;2.77;;
37309;SDS011;23195;47.744;7.358;2023-12-22T06:19:52;13.53;;;2.47;;
37309;SDS011;23195;47.744;7.358;2023-12-22T06:22:17;12.43;;;2.20;;
37309;SDS011;23195;47.744;7.358;2023-12-22T06:24:43;11.47;;;2.57;;
37309;SDS011;23195;47.744;7.358;2023-12-22T06:27:09;11.13;;;2.67;;
37309;SDS011;23195;47.744;7.358;2023-12-22T06:29:35;13.23;;;2.50;;
37309;SDS011;23195;47.744;7.358;2023-12-22T06:32:04;11.60;;;2.13;;
37309;SDS011;23195;47.744;7.358;2023-12-22T06:34:43;14.40;;;2.50;;
37309;SDS011;23195;47.744;7.358;2023-12-22T06:37:17;10.97;;;2.77;;
37309;SDS011;23195;47.744;7.358;2023-12-22T06:39:46;10.30;;;2.40;;
37309;SDS011;23195;47.744;7.358;2023-12-22T06:42:11;12.03;;;2.83;;
37309;SDS011;23195;47.744;7.358;2023-12-22T06:45:06;9.47;;;2.30;;
37309;SDS011;23195;47.744;7.358;2023-12-22T06:47:52;9.67;;;2.30;;
37309;SDS011;23195;47.744;7.358;2023-12-22T06:50:21;15.83;;;2.90;;
37309;SDS011;23195;47.744;7.358;2023-12-22T06:56:16;11.30;;;2.53;;
37309;SDS011;23195;47.744;7.358;2023-12-22T06:58:45;14.00;;;2.17;;
37309;SDS011;23195;47.744;7.358;2023-12-22T07:01:37;16.63;;;2.73;;
37309;SDS011;23195;47.744;7.358;2023-12-22T07:04:05;15.40;;;2.90;;
37309;SDS011;23195;47.744;7.358;2023-12-22T07:06:37;15.10;;;2.20;;
37309;SDS011;23195;47.744;7.358;2023-12-22T07:11:44;12.73;;;2.70;;
37309;SDS011;23195;47.744;7.358;2023-12-22T07:14:16;13.63;;;2.53;;
37309;SDS011;23195;47.744;7.358;2023-12-22T07:16:42;14.80;;;3.03;;
37309;SDS011;23195;47.744;7.358;2023-12-22T07:19:11;11.27;;;2.67;;
37309;SDS011;23195;47.744;7.358;2023-12-22T07:21:45;15.80;;;2.90;;
37309;SDS011;23195;47.744;7.358;2023-12-22T07:24:46;11.67;;;2.87;;
37309;SDS011;23195;47.744;7.358;2023-12-22T07:27:16;13.83;;;2.83;;
37309;SDS011;23195;47.744;7.358;2023-12-22T07:29:45;16.80;;;3.23;;
37309;SDS011;23195;47.744;7.358;2023-12-22T07:32:11;17.20;;;2.90;;
37309;SDS011;23195;47.744;7.358;2023-12-22T07:34:37;12.07;;;3.33;;
37309;SDS011;23195;47.744;7.358;2023-12-22T07:37:03;14.97;;;3.53;;
37309;SDS011;23195;47.744;7.358;2023-12-22T07:39:35;20.57;;;4.83;;
37309;SDS011;23195;47.744;7.358;2023-12-22T07:42:10;16.03;;;3.80;;
37309;SDS011;23195;47.744;7.358;2023-12-22T07:44:35;21.60;;;5.10;;
37309;SDS011;23195;47.744;7.358;2023-12-22T07:47:01;17.50;;;3.87;;
37309;SDS011;23195;47.744;7.358;2023-12-22T07:49:47;15.33;;;3.80;;
37309;SDS011;23195;47.744;7.358;2023-12-22T07:52:15;15.33;;;3.40;;
37309;SDS011;23195;47.744;7.358;2023-12-22T07:54:40;13.70;;;2.80;;
37309;SDS011;23195;47.744;7.358;2023-12-22T07:57:16;17.23;;;4.17;;
37309;SDS011;23195;47.744;7.358;2023-12-22T07:59:45;13.47;;;3.43;;
37309;SDS011;23195;47.744;7.358;2023-12-22T08:02:18;12.33;;;2.70;;
37309;SDS011;23195;47.744;7.358;2023-12-22T08:04:51;16.43;;;2.60;;
37309;SDS011;23195;47.744;7.358;2023-12-22T08:07:20;13.27;;;3.00;;
37309;SDS011;23195;47.744;7.358;2023-12-22T08:09:46;16.87;;;2.93;;
37309;SDS011;23195;47.744;7.358;2023-12-22T08:12:14;17.17;;;3.63;;
37309;SDS011;23195;47.744;7.358;2023-12-22T08:14:40;13.20;;;3.40;;
37309;SDS011;23195;47.744;7.358;2023-12-22T08:17:09;16.43;;;3.60;;
37309;SDS011;23195;47.744;7.358;2023-12-22T08:19:38;14.17;;;3.23;;
37309;SDS011;23195;47.744;7.358;2023-12-22T08:22:10;16.07;;;2.90;;
37309;SDS011;23195;47.744;7.358;2023-12-22T08:24:36;11.50;;;3.30;;
37309;SDS011;23195;47.744;7.358;2023-12-22T08:27:02;15.00;;;3.10;;
37309;SDS011;23195;47.744;7.358;2023-12-22T08:29:28;17.20;;;3.93;;
37309;SDS011;23195;47.744;7.358;2023-12-22T08:32:00;15.13;;;3.27;;
37309;SDS011;23195;47.744;7.358;2023-12-22T08:34:33;17.07;;;2.67;;
37309;SDS011;23195;47.744;7.358;2023-12-22T08:36:59;13.43;;;2.63;;
37309;SDS011;23195;47.744;7.358;2023-12-22T08:39:25;11.77;;;2.80;;
37309;SDS011;23195;47.744;7.358;2023-12-22T08:41:51;17.77;;;3.20;;
37309;SDS011;23195;47.744;7.358;2023-12-22T08:44:19;11.63;;;2.73;;
37309;SDS011;23195;47.744;7.358;2023-12-22T08:46:51;13.00;;;2.90;;
37309;SDS011;23195;47.744;7.358;2023-12-22T08:49:17;15.77;;;3.33;;
37309;SDS011;23195;47.744;7.358;2023-12-22T08:51:43;15.83;;;3.03;;
37309;SDS011;23195;47.744;7.358;2023-12-22T08:54:14;17.10;;;3.40;;
37309;SDS011;23195;47.744;7.358;2023-12-22T08:56:42;18.53;;;3.30;;
37309;SDS011;23195;47.744;7.358;2023-12-22T08:59:08;16.60;;;3.67;;
37309;SDS011;23195;47.744;7.358;2023-12-22T09:01:34;20.13;;;4.30;;
37309;SDS011;23195;47.744;7.358;2023-12-22T09:04:00;16.13;;;3.20;;
37309;SDS011;23195;47.744;7.358;2023-12-22T09:06:26;12.77;;;3.57;;
37309;SDS011;23195;47.744;7.358;2023-12-22T09:08:52;14.97;;;2.90;;
37309;SDS011;23195;47.744;7.358;2023-12-22T09:11:19;16.10;;;3.03;;
37309;SDS011;23195;47.744;7.358;2023-12-22T09:13:46;12.87;;;3.40;;
37309;SDS011;23195;47.744;7.358;2023-12-22T09:16:12;18.43;;;5.40;;
37309;SDS011;23195;47.744;7.358;2023-12-22T09:18:40;13.77;;;2.80;;
37309;SDS011;23195;47.744;7.358;2023-12-22T09:21:07;12.87;;;2.30;;
37309;SDS011;23195;47.744;7.358;2023-12-22T09:23:33;16.53;;;5.03;;
37309;SDS011;23195;47.744;7.358;2023-12-22T09:25:59;12.07;;;2.63;;
37309;SDS011;23195;47.744;7.358;2023-12-22T09:28:25;14.03;;;3.00;;
37309;SDS011;23195;47.744;7.358;2023-12-22T09:30:53;15.40;;;3.70;;
37309;SDS011;23195;47.744;7.358;2023-12-22T09:33:18;12.37;;;2.77;;
37309;SDS011;23195;47.744;7.358;2023-12-22T09:35:44;15.27;;;2.70;;
37309;SDS011;23195;47.744;7.358;2023-12-22T09:38:10;12.77;;;2.53;;
37309;SDS011;23195;47.744;7.358;2023-12-22T09:40:37;18.83;;;3.43;;
37309;SDS011;23195;47.744;7.358;2023-12-22T09:43:04;14.03;;;2.93;;
37309;SDS011;23195;47.744;7.358;2023-12-22T09:45:34;12.27;;;2.73;;
37309;SDS011;23195;47.744;7.358;2023-12-22T09:48:02;12.80;;;2.70;;
37309;SDS011;23195;47.744;7.358;2023-12-22T09:50:33;11.17;;;2.87;;
37309;SDS011;23195;47.744;7.358;2023-12-22T09:53:02;9.90;;;2.73;;
37309;SDS011;23195;47.744;7.358;2023-12-22T09:55:32;9.33;;;2.70;;
37309;SDS011;23195;47.744;7.358;2023-12-22T09:58:04;10.77;;;3.37;;
37309;SDS011;23195;47.744;7.358;2023-12-22T10:00:35;9.50;;;2.70;;
37309;SDS011;23195;47.744;7.358;2023-12-22T10:03:11;11.97;;;2.63;;
37309;SDS011;23195;47.744;7.358;2023-12-22T10:05:41;8.73;;;2.50;;
37309;SDS011;23195;47.744;7.358;2023-12-22T10:08:06;16.43;;;2.90;;
37309;SDS011;23195;47.744;7.358;2023-12-22T10:10:38;13.90;;;3.27;;
37309;SDS011;23195;47.744;7.358;2023-12-22T10:13:14;10.90;;;2.93;;
37309;SDS011;23195;47.744;7.358;2023-12-22T10:15:40;9.67;;;2.53;;
37309;SDS011;23195;47.744;7.358;2023-12-22T10:18:11;10.17;;;2.77;;
37309;SDS011;23195;47.744;7.358;2023-12-22T10:20:38;10.83;;;2.80;;
37309;SDS011;23195;47.744;7.358;2023-12-22T10:23:04;10.17;;;2.37;;
37309;SDS011;23195;47.744;7.358;2023-12-22T10:25:37;13.90;;;2.80;;
37309;SDS011;23195;47.744;7.358;2023-12-22T10:28:05;8.43;;;2.33;;
37309;SDS011;23195;47.744;7.358;2023-12-22T10:30:35;5.63;;;2.00;;
37309;SDS011;23195;47.744;7.358;2023-12-22T10:33:03;7.70;;;2.30;;
37309;SDS011;23195;47.744;7.358;2023-12-22T10:35:29;6.37;;;1.80;;
37309;SDS011;23195;47.744;7.358;2023-12-22T10:37:55;6.80;;;2.30;;
37309;SDS011;23195;47.744;7.358;2023-12-22T10:40:21;7.10;;;2.23;;
37309;SDS011;23195;47.744;7.358;2023-12-22T10:42:50;8.20;;;3.50;;
37309;SDS011;23195;47.744;7.358;2023-12-22T10:45:20;6.60;;;2.10;;
37309;SDS011;23195;47.744;7.358;2023-12-22T10:47:48;8.17;;;2.00;;
37309;SDS011;23195;47.744;7.358;2023-12-22T10:50:21;6.30;;;2.00;;
37309;SDS011;23195;47.744;7.358;2023-12-22T10:52:50;6.70;;;2.20;;
37309;SDS011;23195;47.744;7.358;2023-12-22T10:55:19;9.23;;;1.90;;
37309;SDS011;23195;47.744;7.358;2023-12-22T10:57:48;7.33;;;2.20;;
37309;SDS011;23195;47.744;7.358;2023-12-22T11:00:15;10.73;;;2.27;;
37309;SDS011;23195;47.744;7.358;2023-12-22T11:02:47;7.27;;;2.67;;
37309;SDS011;23195;47.744;7.358;2023-12-22T11:05:15;4.77;;;2.10;;
37309;SDS011;23195;47.744;7.358;2023-12-22T11:07:48;8.50;;;2.20;;
37309;SDS011;23195;47.744;7.358;2023-12-22T11:10:14;4.60;;;1.83;;
37309;SDS011;23195;47.744;7.358;2023-12-22T11:12:44;5.90;;;1.70;;
37309;SDS011;23195;47.744;7.358;2023-12-22T11:15:12;6.93;;;1.93;;
37309;SDS011;23195;47.744;7.358;2023-12-22T11:17:39;5.37;;;1.83;;
37309;SDS011;23195;47.744;7.358;2023-12-22T11:20:08;7.30;;;1.90;;
37309;SDS011;23195;47.744;7.358;2023-12-22T11:22:35;6.10;;;1.60;;
37309;SDS011;23195;47.744;7.358;2023-12-22T11:25:02;6.17;;;1.40;;
37309;SDS011;23195;47.744;7.358;2023-12-22T11:27:28;2.90;;;1.43;;
37309;SDS011;23195;47.744;7.358;2023-12-22T11:29:55;3.60;;;1.30;;
37309;SDS011;23195;47.744;7.358;2023-12-22T11:32:21;2.77;;;1.17;;
37309;SDS011;23195;47.744;7.358;2023-12-22T11:34:49;1.77;;;1.00;;
37309;SDS011;23195;47.744;7.358;2023-12-22T11:37:15;2.43;;;0.83;;
37309;SDS011;23195;47.744;7.358;2023-12-22T11:39:41;4.40;;;0.90;;
37309;SDS011;23195;47.744;7.358;2023-12-22T11:42:08;1.90;;;1.00;;
37309;SDS011;23195;47.744;7.358;2023-12-22T11:44:39;2.33;;;1.30;;
37309;SDS011;23195;47.744;7.358;2023-12-22T11:47:09;4.37;;;1.10;;
37309;SDS011;23195;47.744;7.358;2023-12-22T11:49:36;2.03;;;1.30;;
37309;SDS011;23195;47.744;7.358;2023-12-22T11:54:45;1.63;;;0.80;;
37309;SDS011;23195;47.744;7.358;2023-12-22T11:59:53;1.80;;;1.13;;
37309;SDS011;23195;47.744;7.358;2023-12-22T12:02:20;3.00;;;1.20;;
37309;SDS011;23195;47.744;7.358;2023-12-22T12:04:57;2.07;;;1.13;;
37309;SDS011;23195;47.744;7.358;2023-12-22T12:07:39;1.90;;;1.07;;
37309;SDS011;23195;47.744;7.358;2023-12-22T12:10:10;2.60;;;1.20;;
37309;SDS011;23195;47.744;7.358;2023-12-22T12:13:09;1.90;;;0.73;;
37309;SDS011;23195;47.744;7.358;2023-12-22T12:15:36;1.93;;;1.00;;
37309;SDS011;23195;47.744;7.358;2023-12-22T12:18:03;2.03;;;1.10;;
37309;SDS011;23195;47.744;7.358;2023-12-22T12:20:31;3.27;;;1.30;;
37309;SDS011;23195;47.744;7.358;2023-12-22T12:22:57;1.57;;;1.00;;
37309;SDS011;23195;47.744;7.358;2023-12-22T12:25:23;2.57;;;1.27;;
37309;SDS011;23195;47.744;7.358;2023-12-22T12:28:03;1.50;;;0.93;;
37309;SDS011;23195;47.744;7.358;2023-12-22T12:30:36;1.30;;;0.80;;
37309;SDS011;23195;47.744;7.358;2023-12-22T12:33:08;1.87;;;0.70;;
37309;SDS011;23195;47.744;7.358;2023-12-22T12:35:35;1.27;;;0.80;;
37309;SDS011;23195;47.744;7.358;2023-12-22T12:38:08;0.70;;;0.60;;
37309;SDS011;23195;47.744;7.358;2023-12-22T12:40:37;0.80;;;0.50;;
37309;SDS011;23195;47.744;7.358;2023-12-22T12:43:05;0.73;;;0.67;;
37309;SDS011;23195;47.744;7.358;2023-12-22T12:45:34;1.20;;;0.90;;
37309;SDS011;23195;47.744;7.358;2023-12-22T12:48:01;1.10;;;1.00;;
37309;SDS011;23195;47.744;7.358;2023-12-22T12:50:34;1.73;;;0.90;;
37309;SDS011;23195;47.744;7.358;2023-12-22T12:53:13;1.53;;;1.10;;
37309;SDS011;23195;47.744;7.358;2023-12-22T12:55:58;1.20;;;1.00;;
37309;SDS011;23195;47.744;7.358;2023-12-22T12:58:29;0.63;;;0.60;;
37309;SDS011;23195;47.744;7.358;2023-12-22T13:01:08;1.77;;;0.87;;
37309;SDS011;23195;47.744;7.358;2023-12-22T13:03:56;0.90;;;0.60;;
37309;SDS011;23195;47.744;7.358;2023-12-22T13:06:23;1.47;;;1.10;;
37309;SDS011;23195;47.744;7.358;2023-12-22T13:08:49;1.53;;;1.13;;
37309;SDS011;23195;47.744;7.358;2023-12-22T13:11:19;1.50;;;1.10;;
37309;SDS011;23195;47.744;7.358;2023-12-22T13:13:46;1.03;;;0.80;;
37309;SDS011;23195;47.744;7.358;2023-12-22T13:16:12;1.23;;;0.70;;
37309;SDS011;23195;47.744;7.358;2023-12-22T13:18:38;1.40;;;0.90;;
37309;SDS011;23195;47.744;7.358;2023-12-22T13:21:04;1.63;;;0.80;;
37309;SDS011;23195;47.744;7.358;2023-12-22T13:23:30;2.20;;;1.23;;
37309;SDS011;23195;47.744;7.358;2023-12-22T13:25:56;2.00;;;1.23;;
37309;SDS011;23195;47.744;7.358;2023-12-22T13:28:28;1.20;;;0.90;;
37309;SDS011;23195;47.744;7.358;2023-12-22T13:30:54;1.83;;;0.90;;
37309;SDS011;23195;47.744;7.358;2023-12-22T13:33:20;1.17;;;0.93;;
37309;SDS011;23195;47.744;7.358;2023-12-22T13:35:47;1.40;;;0.80;;
37309;SDS011;23195;47.744;7.358;2023-12-22T13:38:16;2.13;;;1.10;;
37309;SDS011;23195;47.744;7.358;2023-12-22T13:40:46;3.03;;;1.00;;
37309;SDS011;23195;47.744;7.358;2023-12-22T13:43:12;1.33;;;0.80;;
37309;SDS011;23195;47.744;7.358;2023-12-22T13:45:38;1.90;;;0.70;;
37309;SDS011;23195;47.744;7.358;2023-12-22T13:48:04;2.83;;;1.03;;
37309;SDS011;23195;47.744;7.358;2023-12-22T13:50:37;2.03;;;1.30;;
37309;SDS011;23195;47.744;7.358;2023-12-22T13:53:08;1.77;;;0.80;;
37309;SDS011;23195;47.744;7.358;2023-12-22T13:55:35;1.13;;;0.90;;
37309;SDS011;23195;47.744;7.358;2023-12-22T13:58:05;1.37;;;0.70;;
37309;SDS011;23195;47.744;7.358;2023-12-22T14:00:30;1.90;;;1.20;;
37309;SDS011;23195;47.744;7.358;2023-12-22T14:02:57;1.40;;;0.90;;
37309;SDS011;23195;47.744;7.358;2023-12-22T14:05:23;2.20;;;1.00;;
37309;SDS011;23195;47.744;7.358;2023-12-22T14:07:49;2.30;;;0.70;;
37309;SDS011;23195;47.744;7.358;2023-12-22T14:10:15;0.90;;;0.70;;
37309;SDS011;23195;47.744;7.358;2023-12-22T14:12:41;1.23;;;0.93;;
37309;SDS011;23195;47.744;7.358;2023-12-22T14:15:07;0.87;;;0.70;;
37309;SDS011;23195;47.744;7.358;2023-12-22T14:17:36;1.70;;;1.20;;
37309;SDS011;23195;47.744;7.358;2023-12-22T14:20:03;1.47;;;1.00;;
37309;SDS011;23195;47.744;7.358;2023-12-22T14:22:30;1.67;;;0.90;;
37309;SDS011;23195;47.744;7.358;2023-12-22T14:24:56;1.43;;;0.80;;
37309;SDS011;23195;47.744;7.358;2023-12-22T14:27:24;1.07;;;0.70;;
37309;SDS011;23195;47.744;7.358;2023-12-22T14:29:53;1.13;;;0.77;;
37309;SDS011;23195;47.744;7.358;2023-12-22T14:32:19;2.00;;;0.50;;
37309;SDS011;23195;47.744;7.358;2023-12-22T14:34:45;0.87;;;0.80;;
37309;SDS011;23195;47.744;7.358;2023-12-22T14:37:11;1.63;;;0.80;;
37309;SDS011;23195;47.744;7.358;2023-12-22T14:39:38;1.00;;;0.70;;
37309;SDS011;23195;47.744;7.358;2023-12-22T14:42:07;3.07;;;1.20;;
37309;SDS011;23195;47.744;7.358;2023-12-22T14:44:33;1.77;;;0.90;;
37309;SDS011;23195;47.744;7.358;2023-12-22T14:46:59;3.13;;;0.93;;
37309;SDS011;23195;47.744;7.358;2023-12-22T14:49:25;0.57;;;0.50;;
37309;SDS011;23195;47.744;7.358;2023-12-22T14:51:53;0.50;;;0.50;;
37309;SDS011;23195;47.744;7.358;2023-12-22T14:54:22;2.07;;;1.73;;
37309;SDS011;23195;47.744;7.358;2023-12-22T14:56:50;0.93;;;0.83;;
37309;SDS011;23195;47.744;7.358;2023-12-22T14:59:16;0.60;;;0.60;;
37309;SDS011;23195;47.744;7.358;2023-12-22T15:01:43;2.20;;;1.03;;
37309;SDS011;23195;47.744;7.358;2023-12-22T15:04:13;1.20;;;1.10;;
37309;SDS011;23195;47.744;7.358;2023-12-22T15:06:39;1.77;;;1.10;;